Terminal Aerodrome Forecast
Issued by NWS

Home | Current Version | Previous Version | Text Only | Print | Product List | Glossary On
Versions: 1 2 3 4 5 6 7 8 9 10 11 12
000
FTUS46 KSGX 260500
TAFONT
TAF
KONT 260520Z 2606/2712 27007KT P6SM SCT150
     FM262100 24012G17KT P6SM SCT120
     FM270400 26004KT P6SM SCT120=

USA.gov is the U.S. government's official web portal to all federal, state and local government web resources and services.